sensor_id;sensor_type;location;lat;lon;timestamp;pressure;altitude;pressure_sealevel;temperature;humidity
39773;BME280;25451;51.960;6.250;2023-04-28T00:02:21;101285.25;;;10.72;48.30
39773;BME280;25451;51.960;6.250;2023-04-28T00:04:47;101279.75;;;10.72;48.41
39773;BME280;25451;51.960;6.250;2023-04-28T00:07:12;101275.53;;;10.69;48.30
39773;BME280;25451;51.960;6.250;2023-04-28T00:09:37;101283.81;;;10.69;48.51
39773;BME280;25451;51.960;6.250;2023-04-28T00:12:03;101264.34;;;10.64;48.54
39773;BME280;25451;51.960;6.250;2023-04-28T00:14:28;101257.13;;;10.63;48.37
39773;BME280;25451;51.960;6.250;2023-04-28T00:16:53;101252.91;;;10.61;48.58
39773;BME280;25451;51.960;6.250;2023-04-28T00:19:20;101249.94;;;10.62;48.44
39773;BME280;25451;51.960;6.250;2023-04-28T00:21:46;101236.47;;;10.54;48.70
39773;BME280;25451;51.960;6.250;2023-04-28T00:24:11;101229.88;;;10.55;48.59
39773;BME280;25451;51.960;6.250;2023-04-28T00:26:37;101220.00;;;10.48;48.55
39773;BME280;25451;51.960;6.250;2023-04-28T00:29:02;101239.00;;;10.56;48.70
39773;BME280;25451;51.960;6.250;2023-04-28T00:31:27;101229.13;;;10.48;48.57
39773;BME280;25451;51.960;6.250;2023-04-28T00:33:52;101245.81;;;10.53;48.51
39773;BME280;25451;51.960;6.250;2023-04-28T00:36:18;101237.41;;;10.48;48.43
39773;BME280;25451;51.960;6.250;2023-04-28T00:38:43;101219.16;;;10.47;48.77
39773;BME280;25451;51.960;6.250;2023-04-28T00:41:09;101229.00;;;10.55;48.54
39773;BME280;25451;51.960;6.250;2023-04-28T00:43:46;101230.97;;;10.54;48.48
39773;BME280;25451;51.960;6.250;2023-04-28T00:46:19;101231.16;;;10.53;48.54
39773;BME280;25451;51.960;6.250;2023-04-28T00:48:44;101221.22;;;10.52;48.63
39773;BME280;25451;51.960;6.250;2023-04-28T00:51:09;101217.09;;;10.43;48.57
39773;BME280;25451;51.960;6.250;2023-04-28T00:53:35;101206.91;;;10.43;48.68
39773;BME280;25451;51.960;6.250;2023-04-28T00:56:00;101216.66;;;10.46;48.63
39773;BME280;25451;51.960;6.250;2023-04-28T00:58:27;101224.44;;;10.49;48.70
39773;BME280;25451;51.960;6.250;2023-04-28T01:01:01;101209.81;;;10.48;48.74
39773;BME280;25451;51.960;6.250;2023-04-28T01:03:27;101204.75;;;10.45;48.76
39773;BME280;25451;51.960;6.250;2023-04-28T01:05:53;101205.00;;;10.44;48.82
39773;BME280;25451;51.960;6.250;2023-04-28T01:08:22;101189.91;;;10.46;48.99
39773;BME280;25451;51.960;6.250;2023-04-28T01:10:48;101178.00;;;10.46;48.79
39773;BME280;25451;51.960;6.250;2023-04-28T01:13:13;101168.63;;;10.47;48.98
39773;BME280;25451;51.960;6.250;2023-04-28T01:15:38;101162.75;;;10.43;48.95
39773;BME280;25451;51.960;6.250;2023-04-28T01:18:04;101165.19;;;10.51;49.18
39773;BME280;25451;51.960;6.250;2023-04-28T01:20:29;101170.34;;;10.48;48.96
39773;BME280;25451;51.960;6.250;2023-04-28T01:22:55;101166.97;;;10.46;49.03
39773;BME280;25451;51.960;6.250;2023-04-28T01:25:20;101135.00;;;10.27;49.01
39773;BME280;25451;51.960;6.250;2023-04-28T01:27:45;101166.97;;;10.46;48.99
39773;BME280;25451;51.960;6.250;2023-04-28T01:30:11;101164.22;;;10.46;49.17
39773;BME280;25451;51.960;6.250;2023-04-28T01:32:36;101174.66;;;10.44;49.28
39773;BME280;25451;51.960;6.250;2023-04-28T01:35:01;101156.03;;;10.39;49.35
39773;BME280;25451;51.960;6.250;2023-04-28T01:37:27;101152.19;;;10.40;49.31
39773;BME280;25451;51.960;6.250;2023-04-28T01:39:52;101153.97;;;10.35;49.30
39773;BME280;25451;51.960;6.250;2023-04-28T01:42:18;101152.66;;;10.37;49.31
39773;BME280;25451;51.960;6.250;2023-04-28T01:44:44;101152.06;;;10.35;49.29
39773;BME280;25451;51.960;6.250;2023-04-28T01:47:09;101178.47;;;10.43;49.31
39773;BME280;25451;51.960;6.250;2023-04-28T01:49:34;101164.78;;;10.36;49.12
39773;BME280;25451;51.960;6.250;2023-04-28T01:52:00;101158.88;;;10.33;49.30
39773;BME280;25451;51.960;6.250;2023-04-28T01:54:25;101166.34;;;10.32;49.35
39773;BME280;25451;51.960;6.250;2023-04-28T01:56:51;101156.97;;;10.33;49.46
39773;BME280;25451;51.960;6.250;2023-04-28T01:59:16;101163.25;;;10.40;49.58
39773;BME280;25451;51.960;6.250;2023-04-28T02:01:44;101151.34;;;10.40;49.78
39773;BME280;25451;51.960;6.250;2023-04-28T02:04:09;101164.31;;;10.39;49.85
39773;BME280;25451;51.960;6.250;2023-04-28T02:06:34;101141.25;;;10.34;49.94
39773;BME280;25451;51.960;6.250;2023-04-28T02:09:00;101147.84;;;10.33;50.20
39773;BME280;25451;51.960;6.250;2023-04-28T02:11:25;101158.78;;;10.39;50.33
39773;BME280;25451;51.960;6.250;2023-04-28T02:13:50;101150.16;;;10.36;50.57
39773;BME280;25451;51.960;6.250;2023-04-28T02:16:16;101159.63;;;10.40;50.63
39773;BME280;25451;51.960;6.250;2023-04-28T02:18:41;101155.78;;;10.41;50.71
39773;BME280;25451;51.960;6.250;2023-04-28T02:21:10;101133.59;;;10.36;50.78
39773;BME280;25451;51.960;6.250;2023-04-28T02:23:36;101141.53;;;10.44;50.80
39773;BME280;25451;51.960;6.250;2023-04-28T02:26:02;101134.78;;;10.40;50.98
39773;BME280;25451;51.960;6.250;2023-04-28T02:28:28;101134.91;;;10.45;51.06
39773;BME280;25451;51.960;6.250;2023-04-28T02:31:05;101117.75;;;10.43;51.33
39773;BME280;25451;51.960;6.250;2023-04-28T02:33:31;101104.09;;;10.36;51.42
39773;BME280;25451;51.960;6.250;2023-04-28T02:36:00;101128.34;;;10.46;51.58
39773;BME280;25451;51.960;6.250;2023-04-28T02:38:26;101123.66;;;10.46;51.49
39773;BME280;25451;51.960;6.250;2023-04-28T02:43:23;101121.97;;;10.45;51.58
39773;BME280;25451;51.960;6.250;2023-04-28T02:45:48;101112.63;;;10.46;51.79
39773;BME280;25451;51.960;6.250;2023-04-28T02:48:14;101103.00;;;10.37;52.00
39773;BME280;25451;51.960;6.250;2023-04-28T02:50:40;101100.59;;;10.41;52.01
39773;BME280;25451;51.960;6.250;2023-04-28T02:53:05;101102.53;;;10.40;52.21
39773;BME280;25451;51.960;6.250;2023-04-28T02:55:30;101107.66;;;10.37;52.33
39773;BME280;25451;51.960;6.250;2023-04-28T02:57:56;101106.84;;;10.36;52.36
39773;BME280;25451;51.960;6.250;2023-04-28T03:00:21;101109.00;;;10.34;52.49
39773;BME280;25451;51.960;6.250;2023-04-28T03:02:46;101106.09;;;10.29;52.58
39773;BME280;25451;51.960;6.250;2023-04-28T03:05:12;101097.22;;;10.27;52.62
39773;BME280;25451;51.960;6.250;2023-04-28T03:07:37;101096.38;;;10.27;52.88
39773;BME280;25451;51.960;6.250;2023-04-28T03:10:02;101084.47;;;10.26;52.86
39773;BME280;25451;51.960;6.250;2023-04-28T03:12:28;101088.22;;;10.32;52.78
39773;BME280;25451;51.960;6.250;2023-04-28T03:14:53;101078.16;;;10.26;52.72
39773;BME280;25451;51.960;6.250;2023-04-28T03:17:18;101057.25;;;10.18;52.86
39773;BME280;25451;51.960;6.250;2023-04-28T03:19:44;101062.19;;;10.28;52.95
39773;BME280;25451;51.960;6.250;2023-04-28T03:22:09;101058.59;;;10.27;52.78
39773;BME280;25451;51.960;6.250;2023-04-28T03:24:35;101051.38;;;10.26;53.17
39773;BME280;25451;51.960;6.250;2023-04-28T03:27:00;101042.13;;;10.21;53.16
39773;BME280;25451;51.960;6.250;2023-04-28T03:29:27;101048.88;;;10.25;53.29
39773;BME280;25451;51.960;6.250;2023-04-28T03:31:53;101037.81;;;10.25;53.29
39773;BME280;25451;51.960;6.250;2023-04-28T03:34:18;101029.19;;;10.21;53.85
39773;BME280;25451;51.960;6.250;2023-04-28T03:36:43;101032.41;;;10.18;53.65
39773;BME280;25451;51.960;6.250;2023-04-28T03:39:09;101012.50;;;10.16;53.63
39773;BME280;25451;51.960;6.250;2023-04-28T03:41:34;101025.59;;;10.21;53.52
39773;BME280;25451;51.960;6.250;2023-04-28T03:44:00;101014.91;;;10.13;53.55
39773;BME280;25451;51.960;6.250;2023-04-28T03:46:25;101024.53;;;10.22;53.77
39773;BME280;25451;51.960;6.250;2023-04-28T03:48:51;101030.16;;;10.27;53.65
39773;BME280;25451;51.960;6.250;2023-04-28T03:51:17;101034.00;;;10.26;53.92
39773;BME280;25451;51.960;6.250;2023-04-28T03:53:42;101033.50;;;10.29;53.76
39773;BME280;25451;51.960;6.250;2023-04-28T03:56:08;101038.19;;;10.28;54.08
39773;BME280;25451;51.960;6.250;2023-04-28T03:58:34;101031.84;;;10.28;53.93
39773;BME280;25451;51.960;6.250;2023-04-28T04:00:59;101030.75;;;10.29;53.95
39773;BME280;25451;51.960;6.250;2023-04-28T04:03:25;101025.25;;;10.29;54.05
39773;BME280;25451;51.960;6.250;2023-04-28T04:05:51;101034.63;;;10.28;54.06
39773;BME280;25451;51.960;6.250;2023-04-28T04:08:17;101022.13;;;10.25;54.19
39773;BME280;25451;51.960;6.250;2023-04-28T04:10:43;101028.84;;;10.29;54.17
39773;BME280;25451;51.960;6.250;2023-04-28T04:13:08;101013.50;;;10.22;54.21
39773;BME280;25451;51.960;6.250;2023-04-28T04:15:34;101027.78;;;10.30;54.32
39773;BME280;25451;51.960;6.250;2023-04-28T04:17:59;101025.03;;;10.30;54.52
39773;BME280;25451;51.960;6.250;2023-04-28T04:20:25;100992.59;;;10.14;54.46
39773;BME280;25451;51.960;6.250;2023-04-28T04:22:50;101010.84;;;10.27;54.31
39773;BME280;25451;51.960;6.250;2023-04-28T04:25:15;101014.81;;;10.31;54.46
39773;BME280;25451;51.960;6.250;2023-04-28T04:27:41;101002.31;;;10.28;54.47
39773;BME280;25451;51.960;6.250;2023-04-28T04:30:07;101000.19;;;10.30;54.62
39773;BME280;25451;51.960;6.250;2023-04-28T04:32:32;100987.31;;;10.24;54.65
39773;BME280;25451;51.960;6.250;2023-04-28T04:34:57;101006.53;;;10.31;54.59
39773;BME280;25451;51.960;6.250;2023-04-28T04:37:23;101001.88;;;10.31;54.67
39773;BME280;25451;51.960;6.250;2023-04-28T04:39:48;100997.19;;;10.32;54.91
39773;BME280;25451;51.960;6.250;2023-04-28T04:42:13;101004.63;;;10.31;54.60
39773;BME280;25451;51.960;6.250;2023-04-28T04:44:39;101005.47;;;10.32;54.93
39773;BME280;25451;51.960;6.250;2023-04-28T04:47:04;101001.63;;;10.33;54.94
39773;BME280;25451;51.960;6.250;2023-04-28T04:49:30;100984.09;;;10.27;54.85
39773;BME280;25451;51.960;6.250;2023-04-28T04:51:55;100993.13;;;10.34;55.03
39773;BME280;25451;51.960;6.250;2023-04-28T04:54:21;100994.19;;;10.33;54.94
39773;BME280;25451;51.960;6.250;2023-04-28T04:56:46;100974.97;;;10.27;55.06
39773;BME280;25451;51.960;6.250;2023-04-28T04:59:12;100945.00;;;10.19;55.18
39773;BME280;25451;51.960;6.250;2023-04-28T05:01:37;100970.19;;;10.34;55.24
39773;BME280;25451;51.960;6.250;2023-04-28T05:04:03;100959.63;;;10.31;55.18
39773;BME280;25451;51.960;6.250;2023-04-28T05:06:28;100969.09;;;10.35;55.47
39773;BME280;25451;51.960;6.250;2023-04-28T05:08:53;100966.00;;;10.31;55.30
39773;BME280;25451;51.960;6.250;2023-04-28T05:11:20;100969.72;;;10.37;55.49
39773;BME280;25451;51.960;6.250;2023-04-28T05:13:46;100985.81;;;10.40;55.50
39773;BME280;25451;51.960;6.250;2023-04-28T05:16:11;100989.16;;;10.42;55.63
39773;BME280;25451;51.960;6.250;2023-04-28T05:18:36;100974.75;;;10.40;55.82
39773;BME280;25451;51.960;6.250;2023-04-28T05:21:02;100970.91;;;10.41;55.84
39773;BME280;25451;51.960;6.250;2023-04-28T05:23:27;100964.31;;;10.42;55.94
39773;BME280;25451;51.960;6.250;2023-04-28T05:25:52;100968.88;;;10.48;56.05
39773;BME280;25451;51.960;6.250;2023-04-28T05:28:19;100961.44;;;10.48;56.04
39773;BME280;25451;51.960;6.250;2023-04-28T05:30:44;100948.47;;;10.49;56.29
39773;BME280;25451;51.960;6.250;2023-04-28T05:33:09;100956.28;;;10.52;56.05
39773;BME280;25451;51.960;6.250;2023-04-28T05:35:35;100958.31;;;10.56;56.19
39773;BME280;25451;51.960;6.250;2023-04-28T05:38:00;100940.19;;;10.49;56.37
39773;BME280;25451;51.960;6.250;2023-04-28T05:40:25;100945.13;;;10.58;56.51
39773;BME280;25451;51.960;6.250;2023-04-28T05:42:51;100940.41;;;10.59;56.62
39773;BME280;25451;51.960;6.250;2023-04-28T05:45:17;100934.44;;;10.62;56.85
39773;BME280;25451;51.960;6.250;2023-04-28T05:47:42;100932.59;;;10.67;56.86
39773;BME280;25451;51.960;6.250;2023-04-28T05:50:08;100923.25;;;10.68;57.00
39773;BME280;25451;51.960;6.250;2023-04-28T05:52:34;100920.50;;;10.68;57.05
39773;BME280;25451;51.960;6.250;2023-04-28T05:54:59;100942.47;;;10.75;57.18
39773;BME280;25451;51.960;6.250;2023-04-28T05:57:24;100935.84;;;10.76;57.23
39773;BME280;25451;51.960;6.250;2023-04-28T05:59:50;100932.81;;;10.77;57.47
39773;BME280;25451;51.960;6.250;2023-04-28T06:02:15;100910.88;;;10.71;57.60
39773;BME280;25451;51.960;6.250;2023-04-28T06:04:41;100931.63;;;10.85;57.57
39773;BME280;25451;51.960;6.250;2023-04-28T06:07:07;100916.50;;;10.76;57.59
39773;BME280;25451;51.960;6.250;2023-04-28T06:09:32;100931.72;;;10.90;57.83
39773;BME280;25451;51.960;6.250;2023-04-28T06:11:57;100938.34;;;10.89;58.03
39773;BME280;25451;51.960;6.250;2023-04-28T06:14:23;100930.06;;;10.89;58.02
39773;BME280;25451;51.960;6.250;2023-04-28T06:16:49;100929.31;;;10.94;58.25
39773;BME280;25451;51.960;6.250;2023-04-28T06:19:15;100944.06;;;10.99;58.13
39773;BME280;25451;51.960;6.250;2023-04-28T06:21:43;100948.03;;;11.03;58.23
39773;BME280;25451;51.960;6.250;2023-04-28T06:24:08;100930.66;;;10.91;58.34
39773;BME280;25451;51.960;6.250;2023-04-28T06:26:34;100946.94;;;11.04;58.27
39773;BME280;25451;51.960;6.250;2023-04-28T06:28:59;100949.31;;;11.12;58.36
39773;BME280;25451;51.960;6.250;2023-04-28T06:31:24;100946.69;;;11.06;58.44
39773;BME280;25451;51.960;6.250;2023-04-28T06:33:50;100964.09;;;11.18;58.54
39773;BME280;25451;51.960;6.250;2023-04-28T06:36:15;100945.56;;;11.18;58.31
39773;BME280;25451;51.960;6.250;2023-04-28T06:38:42;100955.53;;;11.19;58.57
39773;BME280;25451;51.960;6.250;2023-04-28T06:41:09;100948.91;;;11.20;58.49
39773;BME280;25451;51.960;6.250;2023-04-28T06:43:34;100959.56;;;11.28;58.49
39773;BME280;25451;51.960;6.250;2023-04-28T06:45:59;100940.16;;;11.23;58.80
39773;BME280;25451;51.960;6.250;2023-04-28T06:48:25;100935.88;;;11.32;58.68
39773;BME280;25451;51.960;6.250;2023-04-28T06:50:50;100889.13;;;11.14;58.78
39773;BME280;25451;51.960;6.250;2023-04-28T06:53:16;100928.19;;;11.34;59.06
39773;BME280;25451;51.960;6.250;2023-04-28T06:55:41;100927.72;;;11.37;59.02
39773;BME280;25451;51.960;6.250;2023-04-28T06:58:07;100918.72;;;11.30;59.07
39773;BME280;25451;51.960;6.250;2023-04-28T07:00:33;100942.44;;;11.43;59.48
39773;BME280;25451;51.960;6.250;2023-04-28T07:02:58;100931.41;;;11.43;59.34
39773;BME280;25451;51.960;6.250;2023-04-28T07:05:23;100938.84;;;11.42;59.55
39773;BME280;25451;51.960;6.250;2023-04-28T07:07:49;100943.75;;;11.52;59.44
39773;BME280;25451;51.960;6.250;2023-04-28T07:10:14;100914.09;;;11.47;59.53
39773;BME280;25451;51.960;6.250;2023-04-28T07:12:40;100932.50;;;11.58;59.59
39773;BME280;25451;51.960;6.250;2023-04-28T07:15:06;100922.56;;;11.57;59.77
39773;BME280;25451;51.960;6.250;2023-04-28T07:17:31;100933.72;;;11.62;60.07
39773;BME280;25451;51.960;6.250;2023-04-28T07:19:57;100918.34;;;11.67;60.22
39773;BME280;25451;51.960;6.250;2023-04-28T07:22:22;100914.56;;;11.73;60.30
39773;BME280;25451;51.960;6.250;2023-04-28T07:24:48;100921.78;;;11.74;60.25
39773;BME280;25451;51.960;6.250;2023-04-28T07:27:13;100920.78;;;11.80;60.38
39773;BME280;25451;51.960;6.250;2023-04-28T07:29:38;100918.84;;;11.80;60.34
39773;BME280;25451;51.960;6.250;2023-04-28T07:32:04;100920.28;;;11.83;60.34
39773;BME280;25451;51.960;6.250;2023-04-28T07:34:30;100924.56;;;11.90;60.33
39773;BME280;25451;51.960;6.250;2023-04-28T07:36:55;100931.84;;;11.96;60.59
39773;BME280;25451;51.960;6.250;2023-04-28T07:39:20;100932.16;;;12.00;60.83
39773;BME280;25451;51.960;6.250;2023-04-28T07:41:46;100918.34;;;12.00;60.66
39773;BME280;25451;51.960;6.250;2023-04-28T07:44:11;100924.81;;;12.05;60.86
39773;BME280;25451;51.960;6.250;2023-04-28T07:46:37;100920.09;;;12.06;60.98
39773;BME280;25451;51.960;6.250;2023-04-28T07:49:02;100911.78;;;12.06;60.98
39773;BME280;25451;51.960;6.250;2023-04-28T07:51:29;100901.66;;;12.11;60.92
39773;BME280;25451;51.960;6.250;2023-04-28T07:53:55;100918.75;;;12.25;60.83
39773;BME280;25451;51.960;6.250;2023-04-28T07:56:20;100916.56;;;12.27;60.89
39773;BME280;25451;51.960;6.250;2023-04-28T07:58:46;100911.69;;;12.34;61.10
39773;BME280;25451;51.960;6.250;2023-04-28T08:01:11;100902.78;;;12.32;60.99
39773;BME280;25451;51.960;6.250;2023-04-28T08:03:37;100908.47;;;12.42;61.02
39773;BME280;25451;51.960;6.250;2023-04-28T08:06:02;100901.53;;;12.39;61.27
39773;BME280;25451;51.960;6.250;2023-04-28T08:08:29;100911.41;;;12.52;61.49
39773;BME280;25451;51.960;6.250;2023-04-28T08:10:54;100916.44;;;12.55;61.27
39773;BME280;25451;51.960;6.250;2023-04-28T08:13:19;100910.13;;;12.60;61.61
39773;BME280;25451;51.960;6.250;2023-04-28T08:15:46;100912.13;;;12.64;61.14
39773;BME280;25451;51.960;6.250;2023-04-28T08:18:12;100902.72;;;12.65;61.68
39773;BME280;25451;51.960;6.250;2023-04-28T08:20:37;100917.81;;;12.74;61.66
39773;BME280;25451;51.960;6.250;2023-04-28T08:23:02;100910.09;;;12.76;61.51
39773;BME280;25451;51.960;6.250;2023-04-28T08:25:28;100902.84;;;12.75;61.82
39773;BME280;25451;51.960;6.250;2023-04-28T08:27:53;100910.72;;;12.83;61.91
39773;BME280;25451;51.960;6.250;2023-04-28T08:30:20;100908.03;;;12.88;61.67
39773;BME280;25451;51.960;6.250;2023-04-28T08:32:45;100887.94;;;12.76;62.08
39773;BME280;25451;51.960;6.250;2023-04-28T08:35:11;100898.59;;;12.89;61.92
39773;BME280;25451;51.960;6.250;2023-04-28T08:37:37;100903.94;;;12.96;61.79
39773;BME280;25451;51.960;6.250;2023-04-28T08:40:03;100902.06;;;13.01;61.92
39773;BME280;25451;51.960;6.250;2023-04-28T08:42:33;100913.84;;;13.08;61.86
39773;BME280;25451;51.960;6.250;2023-04-28T08:44:59;100908.88;;;13.10;61.93
39773;BME280;25451;51.960;6.250;2023-04-28T08:47:33;100912.53;;;13.16;62.10
39773;BME280;25451;51.960;6.250;2023-04-28T08:50:02;100912.84;;;13.19;62.33
39773;BME280;25451;51.960;6.250;2023-04-28T08:52:29;100899.84;;;13.20;62.43
39773;BME280;25451;51.960;6.250;2023-04-28T08:54:57;100897.94;;;13.25;62.11
39773;BME280;25451;51.960;6.250;2023-04-28T08:57:25;100887.19;;;13.29;62.48
39773;BME280;25451;51.960;6.250;2023-04-28T08:59:52;100897.53;;;13.39;62.20
39773;BME280;25451;51.960;6.250;2023-04-28T09:02:18;100897.53;;;13.39;62.46
39773;BME280;25451;51.960;6.250;2023-04-28T09:04:44;100896.81;;;13.48;62.35
39773;BME280;25451;51.960;6.250;2023-04-28T09:07:11;100899.38;;;13.55;62.61
39773;BME280;25451;51.960;6.250;2023-04-28T09:09:37;100890.47;;;13.53;62.64
39773;BME280;25451;51.960;6.250;2023-04-28T09:12:03;100896.97;;;13.63;62.59
39773;BME280;25451;51.960;6.250;2023-04-28T09:14:35;100883.63;;;13.60;62.66
39773;BME280;25451;51.960;6.250;2023-04-28T09:17:02;100892.94;;;13.76;62.82
39773;BME280;25451;51.960;6.250;2023-04-28T09:19:34;100901.28;;;13.81;62.85
39773;BME280;25451;51.960;6.250;2023-04-28T09:22:00;100893.31;;;13.89;62.84
39773;BME280;25451;51.960;6.250;2023-04-28T09:24:36;100896.97;;;13.95;62.71
39773;BME280;25451;51.960;6.250;2023-04-28T09:27:04;100891.72;;;13.98;62.82
39773;BME280;25451;51.960;6.250;2023-04-28T09:29:32;100892.59;;;14.04;62.93
39773;BME280;25451;51.960;6.250;2023-04-28T09:32:17;100881.53;;;14.09;62.95
39773;BME280;25451;51.960;6.250;2023-04-28T09:34:45;100894.97;;;14.22;63.08
39773;BME280;25451;51.960;6.250;2023-04-28T09:37:15;100885.53;;;14.23;63.20
39773;BME280;25451;51.960;6.250;2023-04-28T09:39:42;100900.88;;;14.31;63.04
39773;BME280;25451;51.960;6.250;2023-04-28T09:42:08;100898.13;;;14.36;63.16
39773;BME280;25451;51.960;6.250;2023-04-28T09:44:33;100903.44;;;14.42;63.19
39773;BME280;25451;51.960;6.250;2023-04-28T09:46:58;100886.22;;;14.40;63.36
39773;BME280;25451;51.960;6.250;2023-04-28T09:49:24;100881.53;;;14.46;63.20
39773;BME280;25451;51.960;6.250;2023-04-28T09:51:49;100878.75;;;14.46;63.20
39773;BME280;25451;51.960;6.250;2023-04-28T09:54:15;100875.16;;;14.50;63.35
39773;BME280;25451;51.960;6.250;2023-04-28T09:56:42;100868.53;;;14.56;63.34
39773;BME280;25451;51.960;6.250;2023-04-28T09:59:08;100865.78;;;14.61;63.46
39773;BME280;25451;51.960;6.250;2023-04-28T10:01:39;100871.94;;;14.68;63.50
39773;BME280;25451;51.960;6.250;2023-04-28T10:04:05;100860.25;;;14.66;63.56
39773;BME280;25451;51.960;6.250;2023-04-28T10:06:33;100863.63;;;14.78;63.75
39773;BME280;25451;51.960;6.250;2023-04-28T10:09:00;100857.84;;;14.80;63.68
39773;BME280;25451;51.960;6.250;2023-04-28T10:11:26;100870.91;;;14.89;63.60
39773;BME280;25451;51.960;6.250;2023-04-28T10:13:52;100856.47;;;14.92;63.70
39773;BME280;25451;51.960;6.250;2023-04-28T10:16:18;100856.22;;;14.99;63.66
39773;BME280;25451;51.960;6.250;2023-04-28T10:18:44;100862.66;;;15.10;63.77
39773;BME280;25451;51.960;6.250;2023-04-28T10:21:11;100867.41;;;15.14;63.93
39773;BME280;25451;51.960;6.250;2023-04-28T10:23:59;100865.44;;;15.20;63.96
39773;BME280;25451;51.960;6.250;2023-04-28T10:29:31;100873.25;;;15.28;63.88
39773;BME280;25451;51.960;6.250;2023-04-28T10:32:16;100869.66;;;15.32;63.85
39773;BME280;25451;51.960;6.250;2023-04-28T10:34:42;100855.19;;;15.35;63.93
39773;BME280;25451;51.960;6.250;2023-04-28T10:37:08;100841.84;;;15.32;63.99
39773;BME280;25451;51.960;6.250;2023-04-28T10:39:33;100865.28;;;15.46;63.98
39773;BME280;25451;51.960;6.250;2023-04-28T10:41:59;100843.25;;;15.40;64.04
39773;BME280;25451;51.960;6.250;2023-04-28T10:55:34;100867.50;;;15.64;64.24
39773;BME280;25451;51.960;6.250;2023-04-28T11:00:40;100860.56;;;15.67;64.28
39773;BME280;25451;51.960;6.250;2023-04-28T11:03:06;100861.13;;;15.69;64.25
39773;BME280;25451;51.960;6.250;2023-04-28T11:05:32;100857.78;;;15.67;64.38
39773;BME280;25451;51.960;6.250;2023-04-28T11:11:16;100863.06;;;15.73;64.51
39773;BME280;25451;51.960;6.250;2023-04-28T11:13:42;100856.13;;;15.71;64.35
39773;BME280;25451;51.960;6.250;2023-04-28T11:16:07;100851.09;;;15.73;64.38
39773;BME280;25451;51.960;6.250;2023-04-28T11:18:59;100856.38;;;15.74;64.66
39773;BME280;25451;51.960;6.250;2023-04-28T11:21:29;100842.19;;;15.71;64.48
39773;BME280;25451;51.960;6.250;2023-04-28T11:23:56;100849.44;;;15.77;64.57
39773;BME280;25451;51.960;6.250;2023-04-28T11:26:21;100838.84;;;15.74;64.52
39773;BME280;25451;51.960;6.250;2023-04-28T11:28:52;100852.75;;;15.84;64.65
39773;BME280;25451;51.960;6.250;2023-04-28T11:31:19;100851.38;;;15.87;64.71
39773;BME280;25451;51.960;6.250;2023-04-28T11:36:35;100848.88;;;15.90;65.00
39773;BME280;25451;51.960;6.250;2023-04-28T11:39:05;100856.94;;;15.92;65.00
39773;BME280;25451;51.960;6.250;2023-04-28T11:41:32;100856.66;;;15.93;65.16
39773;BME280;25451;51.960;6.250;2023-04-28T11:43:58;100848.88;;;15.90;65.29
39773;BME280;25451;51.960;6.250;2023-04-28T11:46:24;100862.25;;;15.98;65.40
39773;BME280;25451;51.960;6.250;2023-04-28T11:49:02;100853.03;;;16.03;65.41
39773;BME280;25451;51.960;6.250;2023-04-28T11:51:32;100861.94;;;16.05;65.58
39773;BME280;25451;51.960;6.250;2023-04-28T11:53:58;100842.72;;;16.03;65.73
39773;BME280;25451;51.960;6.250;2023-04-28T11:56:24;100850.53;;;16.11;65.81
39773;BME280;25451;51.960;6.250;2023-04-28T11:59:08;100845.25;;;16.10;66.09
39773;BME280;25451;51.960;6.250;2023-04-28T12:01:43;100838.84;;;16.14;66.05
39773;BME280;25451;51.960;6.250;2023-04-28T12:04:09;100851.34;;;16.22;66.33
39773;BME280;25451;51.960;6.250;2023-04-28T12:06:34;100846.63;;;16.22;66.40
39773;BME280;25451;51.960;6.250;2023-04-28T12:08:59;100858.00;;;16.31;66.65
39773;BME280;25451;51.960;6.250;2023-04-28T12:11:28;100861.91;;;16.35;66.71
39773;BME280;25451;51.960;6.250;2023-04-28T12:14:05;100862.19;;;16.38;66.88
39773;BME280;25451;51.960;6.250;2023-04-28T12:16:43;100847.44;;;16.33;66.99
39773;BME280;25451;51.960;6.250;2023-04-28T12:19:09;100862.16;;;16.43;67.23
39773;BME280;25451;51.960;6.250;2023-04-28T12:21:36;100863.25;;;16.47;67.15
39773;BME280;25451;51.960;6.250;2023-04-28T12:24:21;100849.91;;;16.44;67.46
39773;BME280;25451;51.960;6.250;2023-04-28T12:26:48;100857.72;;;16.52;67.39
39773;BME280;25451;51.960;6.250;2023-04-28T12:29:40;100849.91;;;16.54;67.75
39773;BME280;25451;51.960;6.250;2023-04-28T12:32:06;100846.53;;;16.57;67.77
39773;BME280;25451;51.960;6.250;2023-04-28T12:34:32;100847.94;;;16.60;67.79
39773;BME280;25451;51.960;6.250;2023-04-28T12:36:59;100851.25;;;16.67;68.02
39773;BME280;25451;51.960;6.250;2023-04-28T12:39:25;100859.28;;;16.74;67.97
39773;BME280;25451;51.960;6.250;2023-04-28T12:41:51;100852.59;;;16.80;68.17
39773;BME280;25451;51.960;6.250;2023-04-28T12:44:16;100850.91;;;16.84;68.13
39773;BME280;25451;51.960;6.250;2023-04-28T12:46:42;100854.22;;;16.91;68.63
39773;BME280;25451;51.960;6.250;2023-04-28T12:49:07;100838.06;;;16.88;68.07
39773;BME280;25451;51.960;6.250;2023-04-28T12:51:32;100849.19;;;16.98;68.40
39773;BME280;25451;51.960;6.250;2023-04-28T12:53:59;100848.03;;;16.99;68.35
39773;BME280;25451;51.960;6.250;2023-04-28T12:56:25;100858.34;;;17.03;68.55
39773;BME280;25451;51.960;6.250;2023-04-28T12:58:51;100853.59;;;17.04;68.53
39773;BME280;25451;51.960;6.250;2023-04-28T13:01:16;100849.38;;;17.06;68.39
39773;BME280;25451;51.960;6.250;2023-04-28T13:03:41;100860.28;;;17.08;68.64
39773;BME280;25451;51.960;6.250;2023-04-28T13:06:08;100853.56;;;17.09;68.43
39773;BME280;25451;51.960;6.250;2023-04-28T13:08:35;100853.56;;;17.09;68.48
39773;BME280;25451;51.960;6.250;2023-04-28T13:11:00;100853.56;;;17.09;68.45
39773;BME280;25451;51.960;6.250;2023-04-28T13:13:28;100851.91;;;17.08;68.52